ASN logo
ASN Wikibase Occurrence # 160048
Last updated: 18 November 2021
This information is added by users of ASN. Neither ASN nor the Flight Safety Foundation are responsible for the completeness or correctness of this information. If you feel this information is incomplete or incorrect, you can submit corrected information.

Date:04-SEP-2013
Time:09:13
Type:Silhouette image of generic C303 model; specific model in this crash may look slightly different
Cessna T303 Crusader
Owner/operator:T303 Inc Trustees (regd. owner)
Registration: N289CW
MSN: T30300032
Fatalities:Fatalities: 2 / Occupants: 2
Other fatalities:0
Aircraft damage: Substantial
Category:Accident
Location:5 mls W of St. Ouen, Jersey, Channel Islands -   United Kingdom
Phase: Approach
Nature:Private
Departure airport:Dinan Trelivan Airport (LFEB)
Destination airport:Jersey-States Airport, Channel Islands (JER/EGJJ)
Investigating agency: AAIB
Narrative:
Two occupants were killed when their Cessna T303 crashed in the English Channel off the island of Jersey. Visibility was poor in the area, with thick fog over sea. Visibility at the airport was fine.

Jersey Police reported in a statement that the airplane is a "UK based American registered Cessna".
It is thought that air traffic control lost contact with the plane about 20 minutes before it was due to land. Fifteen search and rescue vessels, the Channel Islands Airsearch, a UK rescue helicopter and a French rescue helicopter were scrambled to an area off St Ouen’s Bay. Divers spent most of today searching for the wreckage.

A statement from Jersey police said: “Following a comprehensive search and rescue mission we now believe there were no survivors. The States of Jersey Police will now be working alongside the Air Accident Investigation Branch to establish what happened.”

Subsequently, floating debris was found on the sea and it was confirmed this was from N289CW and that the pilot and passenger had suffered fatal injuries

METAR report for Jersey Airport at the morning of the accident:
EGJJ 041020Z 28004KT 230V310 9999 4000W VCFG FEW001 22/16 Q1021 BECMG 9999 NSW
EGJJ 040950Z VRB03KT 9999 4000W VCFG FEW001 21/15 Q1021 BECMG 9999 NSW
EGJJ 040920Z VRB03KT 9999 4000W VCFG FEW001 21/15 Q1021 BECMG 9999 NSW
EGJJ 040850Z VRB03KT 6000 VCFG NSC 19/16 Q1021 NOSIG
EGJJ 040820Z 12005KT 060V130 3500 BR FEW001 17/17 Q1021 BECMG 9000

Sources:

1. AAIB: https://assets.digital.cabinet-office.gov.uk/media/5422f98ded915d1374000759/Cessna_T303_Crusader__N289CW_05-14.pdf
2. FAA: http://registry.faa.gov/aircraftinquiry/NNum_Results.aspx?NNumbertxt=289CW
3. https://www.facebook.com/StatesofJerseyPolice/posts/432468966871540
4. https://www.cornwalllive.com/Jersey-plane-crash-couple-holiday-home-Newquay/story-19751295-detail/story.html
5. http://www.dailymail.co.uk/news/article-2411065/Aircraft-crash-Jersey-kills-businessman-Carl-Whiteley-wife-Kathryn.html
6. http://www.bbc.co.uk/news/world-europe-jersey-23959728
7. https://www.derbytelegraph.co.uk/Derbyshire-businessman-wife-dead-Jersey-air-crash/story-19750736-detail/story.html
NTSB

Accident investigation:
cover
  
Investigating agency: AAIB
Status: Investigation completed
Duration:
Download report: Final report

Media:


Revision history:

Date/timeContributorUpdates
04-Sep-2013 10:40 harro Added
04-Sep-2013 10:42 harro Updated [Aircraft type, Registration, Location, Source, Embed code]
04-Sep-2013 10:45 harro Updated [Embed code, Narrative]
04-Sep-2013 10:48 harro Updated [Registration, Location, Departure airport, Destination airport, Source, Narrative]
04-Sep-2013 10:48 Anon. Updated [Embed code]
04-Sep-2013 10:49 harro Updated [Narrative]
04-Sep-2013 10:53 harro Updated [Narrative]
04-Sep-2013 14:27 harro Updated [Time, Total fatalities, Other fatalities, Phase, Narrative]
04-Sep-2013 14:41 harro Updated [Narrative]
04-Sep-2013 15:13 harro Updated [Registration, Cn, Operator, Source, Narrative]
04-Sep-2013 17:00 LaVidaLoca Updated [Source]
04-Sep-2013 21:10 Dr.John Smith Updated [Operator, Nature, Departure airport, Source, Embed code, Damage, Narrative]
09-Sep-2013 06:22 salt_cay Updated [Registration, Operator, Narrative]
25-Sep-2015 19:29 Dr. John Smith Updated [Time, Location, Source, Narrative]
25-Sep-2015 19:31 Dr. John Smith Updated [Source]
12-Feb-2016 00:42 Dr.John Smith Updated [Embed code]
21-Dec-2016 19:28 ASN Update Bot Updated [Time, Damage, Category, Investigating agency]

Corrections or additions? ... Edit this accident description